createdAt,value
2023-05-09T00:00:59.719Z,4.72
2023-05-09T00:02:21.796Z,4.82
2023-05-09T00:03:45.228Z,4.25
2023-05-09T00:05:09.508Z,4.50
2023-05-09T00:06:32.042Z,4.86
2023-05-09T00:07:53.178Z,4.65
2023-05-09T00:09:15.442Z,3.97
2023-05-09T00:10:37.984Z,4.66
2023-05-09T00:12:00.116Z,3.54
2023-05-09T00:13:22.312Z,4.52
2023-05-09T00:14:44.602Z,4.37
2023-05-09T00:16:06.613Z,4.37
2023-05-09T00:17:28.413Z,3.43
2023-05-09T00:18:50.038Z,4.52
2023-05-09T00:20:12.532Z,5.03
2023-05-09T00:21:33.802Z,4.19
2023-05-09T00:22:55.571Z,3.71
2023-05-09T00:24:17.261Z,4.03
2023-05-09T00:25:38.324Z,4.26
2023-05-09T00:27:01.890Z,4.34
2023-05-09T00:29:45.888Z,4.22
2023-05-09T00:31:08.121Z,4.52
2023-05-09T00:32:30.008Z,4.84
2023-05-09T00:33:52.019Z,5.01
2023-05-09T00:36:25.986Z,4.11
2023-05-09T00:37:48.302Z,4.78
2023-05-09T00:39:09.748Z,5.03
2023-05-09T00:40:31.599Z,5.15
2023-05-09T00:41:54.617Z,5.42
2023-05-09T00:43:16.547Z,4.76
2023-05-09T00:44:37.972Z,4.44
2023-05-09T00:45:59.516Z,4.96
2023-05-09T00:47:23.326Z,4.63
2023-05-09T00:48:45.098Z,4.68
2023-05-09T00:50:12.270Z,4.35
2023-05-09T00:51:33.864Z,5.14
2023-05-09T00:52:55.791Z,4.61
2023-05-09T00:54:17.404Z,4.42
2023-05-09T00:55:39.756Z,4.20
2023-05-09T00:57:02.284Z,4.74
2023-05-09T00:58:23.913Z,4.30
2023-05-09T00:59:45.936Z,4.19
2023-05-09T01:01:08.676Z,4.34
2023-05-09T01:02:31.044Z,4.36
2023-05-09T01:03:52.782Z,4.13
2023-05-09T01:05:15.114Z,3.69
2023-05-09T01:06:52.938Z,4.34
2023-05-09T01:09:53.099Z,4.02
2023-05-09T01:11:30.435Z,4.00
2023-05-09T01:13:14.117Z,3.42
2023-05-09T01:15:02.100Z,3.81
2023-05-09T01:16:34.815Z,3.61
2023-05-09T01:18:33.145Z,2.93
2023-05-09T01:19:58.451Z,3.53
2023-05-09T01:21:22.767Z,3.75
2023-05-09T01:22:50.617Z,4.00
2023-05-09T01:24:24.349Z,3.79
2023-05-09T01:25:57.078Z,3.83
2023-05-09T01:27:24.427Z,3.71
2023-05-09T01:29:16.298Z,3.48
2023-05-09T01:30:38.040Z,3.99
2023-05-09T01:33:14.489Z,4.09
2023-05-09T01:34:38.288Z,3.83
2023-05-09T01:36:03.674Z,3.64
2023-05-09T01:38:43.318Z,3.62
2023-05-09T01:40:12.118Z,3.69
2023-05-09T01:41:34.370Z,3.43
2023-05-09T01:43:01.341Z,3.55
2023-05-09T01:44:23.166Z,3.69
2023-05-09T01:45:44.788Z,3.69
2023-05-09T01:47:06.935Z,3.58
2023-05-09T01:48:28.657Z,3.49
2023-05-09T01:49:51.131Z,4.00
2023-05-09T01:51:12.652Z,3.13
2023-05-09T01:52:33.949Z,3.92
2023-05-09T01:53:55.455Z,4.44
2023-05-09T01:55:17.642Z,3.94
2023-05-09T01:56:42.180Z,4.37
2023-05-09T01:58:03.953Z,3.66
2023-05-09T01:59:29.498Z,4.43
2023-05-09T02:00:50.948Z,3.91
2023-05-09T02:02:12.720Z,3.22
2023-05-09T02:03:34.816Z,2.93
2023-05-09T02:04:56.744Z,3.21
2023-05-09T02:06:18.780Z,2.82
2023-05-09T02:07:40.721Z,2.98
2023-05-09T02:09:02.347Z,2.86
2023-05-09T02:10:23.974Z,2.63
2023-05-09T02:11:46.351Z,2.78
2023-05-09T02:13:08.561Z,3.06
2023-05-09T02:14:31.435Z,3.17
2023-05-09T02:15:53.374Z,2.85
2023-05-09T02:17:14.905Z,3.59
2023-05-09T02:18:37.005Z,3.71
2023-05-09T02:19:58.520Z,3.57
2023-05-09T02:21:20.850Z,3.76
2023-05-09T02:22:42.899Z,2.78
2023-05-09T02:24:05.562Z,2.41
2023-05-09T02:25:27.978Z,3.54
2023-05-09T02:26:49.368Z,3.96
2023-05-09T02:28:13.840Z,4.26
2023-05-09T02:29:37.677Z,4.51
2023-05-09T02:30:59.769Z,4.10
2023-05-09T02:32:27.940Z,4.18
2023-05-09T02:33:49.689Z,3.78
2023-05-09T02:35:11.486Z,3.62
2023-05-09T02:36:35.002Z,3.39
2023-05-09T02:37:58.060Z,2.88
2023-05-09T02:39:20.218Z,3.16
2023-05-09T02:40:43.047Z,2.97
2023-05-09T02:42:11.728Z,3.28
2023-05-09T02:43:34.024Z,2.92
2023-05-09T02:44:57.132Z,2.67
2023-05-09T02:46:19.186Z,2.66
2023-05-09T02:47:41.659Z,4.46
2023-05-09T02:49:02.942Z,2.98
2023-05-09T02:50:25.298Z,2.82
2023-05-09T02:51:47.021Z,2.69
2023-05-09T02:53:09.478Z,2.89
2023-05-09T02:54:30.817Z,3.19
2023-05-09T02:55:52.995Z,3.14
2023-05-09T02:57:16.319Z,3.11
2023-05-09T02:58:38.208Z,3.02
2023-05-09T03:00:00.226Z,2.75
2023-05-09T03:01:21.905Z,2.78
2023-05-09T03:02:44.476Z,2.69
2023-05-09T03:04:06.933Z,2.57
2023-05-09T03:05:28.730Z,2.39
2023-05-09T03:06:51.609Z,2.04
2023-05-09T03:08:13.328Z,2.34
2023-05-09T03:09:36.201Z,2.39
2023-05-09T03:11:01.008Z,4.34
2023-05-09T03:12:22.833Z,3.41
2023-05-09T03:13:46.166Z,2.44
2023-05-09T03:15:08.673Z,3.56
2023-05-09T03:17:51.869Z,3.20
2023-05-09T03:19:13.968Z,4.50
2023-05-09T03:20:35.380Z,3.67
2023-05-09T03:21:57.853Z,3.86
2023-05-09T03:23:21.436Z,3.77
2023-05-09T03:24:43.290Z,2.87
2023-05-09T03:26:05.041Z,3.28
2023-05-09T03:27:27.856Z,3.62
2023-05-09T03:30:12.974Z,3.46
2023-05-09T03:31:35.046Z,3.53
2023-05-09T03:32:57.182Z,3.34
2023-05-09T03:34:19.108Z,3.66
2023-05-09T03:35:41.531Z,3.39
2023-05-09T03:37:04.515Z,3.68
2023-05-09T03:38:26.047Z,3.22
2023-05-09T03:39:47.885Z,3.23
2023-05-09T03:41:12.799Z,3.48
2023-05-09T03:42:34.878Z,3.31
2023-05-09T03:43:56.962Z,3.21
2023-05-09T03:45:18.574Z,3.36
2023-05-09T03:46:41.222Z,3.18
2023-05-09T03:48:04.593Z,3.12
2023-05-09T03:49:26.638Z,3.12
2023-05-09T03:50:49.610Z,3.31
2023-05-09T03:52:11.832Z,3.04
2023-05-09T03:53:33.864Z,3.14
2023-05-09T03:54:55.563Z,2.83
2023-05-09T03:56:18.551Z,3.18
2023-05-09T03:57:41.420Z,2.92
2023-05-09T03:59:03.979Z,3.58
2023-05-09T04:00:26.477Z,2.85
2023-05-09T04:01:48.470Z,3.41
2023-05-09T04:03:10.927Z,3.68
2023-05-09T04:04:34.432Z,3.21
2023-05-09T04:05:56.201Z,3.56
2023-05-09T04:08:42.481Z,3.11
2023-05-09T04:10:07.620Z,4.08
2023-05-09T04:11:29.729Z,3.71
2023-05-09T04:12:51.635Z,3.31
2023-05-09T04:14:12.795Z,3.98
2023-05-09T04:15:35.144Z,3.43
2023-05-09T04:16:58.198Z,3.22
2023-05-09T04:18:21.504Z,3.32
2023-05-09T04:19:44.369Z,3.10
2023-05-09T04:21:07.301Z,3.73
2023-05-09T04:22:28.509Z,3.33
2023-05-09T04:23:51.097Z,3.51
2023-05-09T04:25:13.610Z,3.39
2023-05-09T04:26:35.641Z,4.24
2023-05-09T04:27:57.361Z,3.82
2023-05-09T04:29:19.162Z,3.02
2023-05-09T04:30:42.227Z,3.27
2023-05-09T04:32:05.256Z,2.89
2023-05-09T04:33:28.732Z,3.46
2023-05-09T04:34:50.937Z,3.21
2023-05-09T04:36:13.216Z,3.59
2023-05-09T04:37:35.101Z,3.17
2023-05-09T04:38:58.753Z,3.33
2023-05-09T04:40:21.117Z,3.68
2023-05-09T04:41:43.580Z,3.76
2023-05-09T04:43:05.056Z,4.00
2023-05-09T04:44:27.127Z,3.48
2023-05-09T04:45:49.240Z,3.38
2023-05-09T04:47:11.139Z,3.22
2023-05-09T04:48:34.649Z,3.40
2023-05-09T04:51:19.923Z,2.91
2023-05-09T04:52:41.478Z,3.01
2023-05-09T04:54:03.340Z,2.86
2023-05-09T04:55:25.857Z,2.98
2023-05-09T04:56:50.040Z,3.14
2023-05-09T04:58:14.350Z,3.40
2023-05-09T04:59:36.145Z,3.04
2023-05-09T05:02:21.450Z,3.83
2023-05-09T05:03:42.997Z,3.30
2023-05-09T05:05:12.077Z,2.80
2023-05-09T05:06:30.195Z,2.98
2023-05-09T05:07:52.650Z,3.03
2023-05-09T05:09:15.233Z,3.15
2023-05-09T05:10:37.037Z,2.72
2023-05-09T05:12:02.390Z,3.37
2023-05-09T05:13:22.207Z,3.19
2023-05-09T05:14:44.156Z,3.06
2023-05-09T05:16:06.449Z,3.43
2023-05-09T05:17:28.096Z,3.37
2023-05-09T05:18:51.675Z,3.03
2023-05-09T05:20:15.114Z,3.28
2023-05-09T05:21:37.762Z,3.46
2023-05-09T05:23:00.186Z,3.28
2023-05-09T05:24:21.813Z,3.63
2023-05-09T05:25:45.447Z,5.09
2023-05-09T05:27:07.701Z,6.87
2023-05-09T05:28:29.469Z,4.51
2023-05-09T05:29:50.950Z,4.09
2023-05-09T05:31:13.533Z,3.70
2023-05-09T05:32:37.132Z,3.97
2023-05-09T05:33:59.112Z,3.69
2023-05-09T05:35:21.581Z,4.64
2023-05-09T05:36:43.348Z,4.23
2023-05-09T05:38:05.219Z,3.57
2023-05-09T05:39:27.271Z,3.24
2023-05-09T05:40:48.865Z,3.26
2023-05-09T05:42:11.864Z,3.32
2023-05-09T05:44:57.265Z,2.64
2023-05-09T05:46:19.041Z,3.02
2023-05-09T05:47:42.142Z,2.78
2023-05-09T05:50:25.842Z,2.88
2023-05-09T05:51:47.316Z,2.68
2023-05-09T05:53:09.572Z,3.29
2023-05-09T05:54:31.388Z,2.90
2023-05-09T05:55:53.707Z,3.02
2023-05-09T05:57:15.335Z,3.33
2023-05-09T05:58:39.271Z,2.87
2023-05-09T06:00:00.989Z,2.57
2023-05-09T06:01:22.638Z,3.01
2023-05-09T06:02:45.054Z,2.88
2023-05-09T06:04:07.020Z,2.52
2023-05-09T06:05:29.329Z,2.50
2023-05-09T06:06:50.766Z,2.97
2023-05-09T06:08:13.265Z,4.09
2023-05-09T06:09:39.269Z,3.28
2023-05-09T06:11:02.341Z,3.65
2023-05-09T06:12:26.121Z,3.21
2023-05-09T06:13:49.880Z,3.46
2023-05-09T06:15:13.051Z,3.41
2023-05-09T06:16:35.413Z,3.22
2023-05-09T06:17:57.289Z,2.34
2023-05-09T06:19:21.012Z,3.36
2023-05-09T06:20:44.107Z,2.43
2023-05-09T06:22:07.337Z,2.46
2023-05-09T06:24:51.281Z,2.75
2023-05-09T06:26:13.720Z,2.54
2023-05-09T06:27:35.744Z,3.77
2023-05-09T06:28:57.501Z,2.99
2023-05-09T06:30:26.172Z,2.82
2023-05-09T06:31:42.136Z,2.63
2023-05-09T06:33:04.805Z,2.58
2023-05-09T06:34:27.211Z,2.66
2023-05-09T06:35:50.567Z,2.68
2023-05-09T06:37:13.001Z,2.44
2023-05-09T06:38:36.052Z,2.57
2023-05-09T06:39:57.542Z,3.14
2023-05-09T06:41:20.195Z,2.86
2023-05-09T06:42:43.743Z,3.07
2023-05-09T06:44:05.370Z,2.34
2023-05-09T06:45:27.525Z,3.89
2023-05-09T06:46:49.734Z,3.88
2023-05-09T06:48:12.125Z,2.94
2023-05-09T06:49:34.599Z,2.28
2023-05-09T06:50:56.658Z,2.22
2023-05-09T06:52:20.169Z,1.53
2023-05-09T06:53:41.777Z,2.02
2023-05-09T06:55:04.337Z,1.98
2023-05-09T06:56:25.976Z,1.94
2023-05-09T06:57:48.019Z,2.44
2023-05-09T06:59:10.372Z,2.86
2023-05-09T07:00:31.525Z,2.12
2023-05-09T07:01:52.924Z,2.25
2023-05-09T07:03:16.335Z,3.07
2023-05-09T07:06:00.539Z,2.14
2023-05-09T07:07:22.305Z,1.94
2023-05-09T07:10:11.919Z,1.99
2023-05-09T07:11:39.425Z,1.92
2023-05-09T07:13:00.997Z,2.82
2023-05-09T07:14:23.003Z,2.33
2023-05-09T07:15:44.712Z,2.58
2023-05-09T07:17:22.134Z,3.48
2023-05-09T07:18:30.822Z,3.44
2023-05-09T07:19:53.503Z,2.44
2023-05-09T07:21:14.901Z,3.11
2023-05-09T07:22:38.154Z,3.91
2023-05-09T07:23:59.301Z,2.83
2023-05-09T07:25:21.827Z,2.24
2023-05-09T07:26:43.302Z,2.12
2023-05-09T07:28:05.522Z,1.60
2023-05-09T07:29:27.263Z,1.58
2023-05-09T07:30:48.768Z,1.67
2023-05-09T07:32:10.847Z,1.77
2023-05-09T07:33:33.251Z,1.98
2023-05-09T07:34:54.950Z,1.53
2023-05-09T07:36:16.857Z,1.55
2023-05-09T07:37:38.655Z,1.59
2023-05-09T07:39:00.556Z,1.59
2023-05-09T07:40:22.207Z,1.99
2023-05-09T07:41:44.389Z,2.06
2023-05-09T07:43:05.909Z,2.46
2023-05-09T07:44:27.504Z,3.90
2023-05-09T07:45:50.576Z,2.03
2023-05-09T07:47:12.107Z,2.27
2023-05-09T07:48:34.942Z,2.42
2023-05-09T07:49:56.400Z,2.28
2023-05-09T07:51:18.215Z,2.06
2023-05-09T07:52:42.337Z,1.94
2023-05-09T07:54:05.030Z,1.83
2023-05-09T07:55:27.849Z,1.82
2023-05-09T07:56:50.070Z,2.64
2023-05-09T07:58:11.829Z,1.83
2023-05-09T07:59:34.275Z,1.96
2023-05-09T08:00:57.113Z,2.06
2023-05-09T08:03:41.064Z,2.46
2023-05-09T08:05:03.886Z,3.21
2023-05-09T08:06:25.714Z,3.71
2023-05-09T08:07:47.168Z,7.44
2023-05-09T08:09:08.896Z,4.46
2023-05-09T08:10:32.013Z,2.21
2023-05-09T08:11:53.868Z,2.34
2023-05-09T08:13:15.858Z,3.69
2023-05-09T08:14:38.467Z,2.57
2023-05-09T08:16:01.021Z,1.71
2023-05-09T08:17:23.376Z,1.93
2023-05-09T08:18:45.893Z,1.54
2023-05-09T08:22:52.384Z,1.90
2023-05-09T08:24:14.523Z,1.95
2023-05-09T08:25:36.533Z,1.98
2023-05-09T08:26:59.577Z,1.72
2023-05-09T08:28:24.078Z,2.39
2023-05-09T08:29:46.126Z,1.73
2023-05-09T08:31:07.409Z,2.22
2023-05-09T08:32:31.940Z,3.74
2023-05-09T08:33:56.638Z,2.45
2023-05-09T08:35:18.848Z,2.60
2023-05-09T08:36:42.403Z,2.77
2023-05-09T08:38:05.609Z,2.41
2023-05-09T08:39:29.164Z,2.24
2023-05-09T08:40:51.253Z,1.76
2023-05-09T08:42:14.070Z,1.99
2023-05-09T08:43:36.369Z,2.13
2023-05-09T08:44:58.503Z,1.64
2023-05-09T08:47:40.334Z,1.59
2023-05-09T08:49:03.431Z,2.17
2023-05-09T08:50:25.617Z,2.12
2023-05-09T08:51:50.188Z,1.49
2023-05-09T08:53:11.774Z,2.05
2023-05-09T08:54:33.427Z,2.06
2023-05-09T08:55:55.600Z,1.73
2023-05-09T08:57:17.513Z,2.22
2023-05-09T08:58:42.717Z,2.19
2023-05-09T09:00:08.103Z,2.28
2023-05-09T09:01:30.480Z,2.37
2023-05-09T09:02:52.718Z,2.33
2023-05-09T09:04:15.231Z,2.04
2023-05-09T09:05:41.913Z,1.82
2023-05-09T09:07:01.520Z,2.26
2023-05-09T09:08:23.986Z,2.06
2023-05-09T09:09:47.012Z,2.09
2023-05-09T09:11:16.411Z,2.01
2023-05-09T09:12:41.075Z,2.83
2023-05-09T09:14:15.589Z,2.97
2023-05-09T09:15:38.545Z,2.70
2023-05-09T09:18:24.541Z,1.54
2023-05-09T09:19:49.635Z,1.97
2023-05-09T09:21:12.220Z,2.42
2023-05-09T09:22:34.704Z,2.23
2023-05-09T09:23:56.056Z,1.83
2023-05-09T09:25:18.347Z,2.42
2023-05-09T09:26:47.804Z,2.01
2023-05-09T09:28:09.736Z,2.49
2023-05-09T09:30:47.445Z,2.27
2023-05-09T09:32:09.813Z,2.19
2023-05-09T09:33:31.451Z,2.18
2023-05-09T09:34:53.223Z,2.29
2023-05-09T09:36:14.879Z,1.79
2023-05-09T09:37:40.093Z,2.04
2023-05-09T09:39:03.081Z,1.97
2023-05-09T09:40:28.127Z,1.98
2023-05-09T09:41:50.292Z,1.42
2023-05-09T09:43:12.322Z,1.64
2023-05-09T09:44:33.941Z,2.18
2023-05-09T09:45:56.341Z,1.81
2023-05-09T09:47:18.412Z,2.09
2023-05-09T09:48:39.988Z,1.78
2023-05-09T09:50:15.357Z,1.48
2023-05-09T09:51:37.108Z,1.87
2023-05-09T09:52:59.151Z,1.79
2023-05-09T09:54:21.551Z,1.96
2023-05-09T09:55:52.381Z,2.05
2023-05-09T09:57:14.183Z,2.36
2023-05-09T09:59:51.168Z,2.05
2023-05-09T10:01:14.427Z,1.86
2023-05-09T10:02:36.076Z,1.38
2023-05-09T10:03:59.478Z,2.03
2023-05-09T10:05:24.593Z,1.94
2023-05-09T10:08:12.640Z,1.72
2023-05-09T10:09:35.342Z,2.26
2023-05-09T10:10:57.557Z,2.08
2023-05-09T10:12:19.490Z,1.90
2023-05-09T10:13:41.156Z,2.33
2023-05-09T10:15:09.510Z,2.01
2023-05-09T10:16:42.600Z,1.52
2023-05-09T10:17:59.697Z,1.76
2023-05-09T10:19:37.346Z,1.92
2023-05-09T10:20:58.807Z,1.92
2023-05-09T10:22:21.353Z,1.68
2023-05-09T10:23:45.279Z,1.56
2023-05-09T10:26:26.642Z,1.62
2023-05-09T10:27:50.435Z,1.76
2023-05-09T10:29:12.281Z,2.01
2023-05-09T10:30:38.358Z,2.60
2023-05-09T10:32:00.422Z,3.57
2023-05-09T10:33:25.192Z,2.81
2023-05-09T10:34:49.878Z,3.43
2023-05-09T10:36:12.676Z,1.91
2023-05-09T10:37:35.737Z,1.88
2023-05-09T10:38:58.168Z,1.52
2023-05-09T10:40:20.070Z,1.69
2023-05-09T10:41:42.050Z,1.56
2023-05-09T10:43:04.278Z,1.58
2023-05-09T10:44:25.952Z,1.76
2023-05-09T10:45:47.330Z,2.08
2023-05-09T10:47:10.351Z,1.56
2023-05-09T10:48:36.574Z,2.18
2023-05-09T10:51:15.778Z,2.31
2023-05-09T10:53:00.392Z,1.58
2023-05-09T10:55:55.136Z,1.74
2023-05-09T10:57:18.947Z,1.64
2023-05-09T10:58:41.487Z,1.92
2023-05-09T11:00:04.326Z,2.34
2023-05-09T11:01:31.236Z,1.67
2023-05-09T11:03:07.011Z,2.03
2023-05-09T11:04:29.240Z,1.29
2023-05-09T11:05:53.544Z,2.27
2023-05-09T11:07:26.458Z,1.77
2023-05-09T11:08:52.968Z,1.72
2023-05-09T11:10:15.832Z,1.63
2023-05-09T11:11:38.482Z,1.62
2023-05-09T11:14:18.381Z,2.06
2023-05-09T11:16:04.152Z,1.57
2023-05-09T11:17:31.913Z,1.93
2023-05-09T11:18:55.575Z,1.38
2023-05-09T11:20:20.710Z,1.33
2023-05-09T11:21:46.321Z,1.27
2023-05-09T11:23:09.192Z,1.37
2023-05-09T11:24:33.393Z,1.45
2023-05-09T11:25:58.880Z,1.58
2023-05-09T11:27:28.219Z,1.36
2023-05-09T11:30:37.786Z,1.25
2023-05-09T11:32:06.422Z,1.21
2023-05-09T11:33:33.745Z,1.88
2023-05-09T11:35:15.430Z,1.77
2023-05-09T11:36:39.532Z,1.73
2023-05-09T11:38:06.626Z,1.38
2023-05-09T11:39:29.886Z,1.79
2023-05-09T11:41:07.886Z,2.33
2023-05-09T11:42:38.296Z,2.11
2023-05-09T11:44:01.256Z,3.07
2023-05-09T11:45:30.268Z,1.61
2023-05-09T11:46:52.980Z,1.37
2023-05-09T11:48:20.659Z,1.76
2023-05-09T11:49:48.407Z,1.27
2023-05-09T11:51:18.695Z,1.39
2023-05-09T11:52:40.790Z,1.44
2023-05-09T11:54:07.801Z,2.04
2023-05-09T11:55:29.374Z,1.36
2023-05-09T11:56:53.505Z,1.26
2023-05-09T11:58:15.745Z,1.32
2023-05-09T11:59:40.816Z,1.49
2023-05-09T12:01:03.282Z,1.75
2023-05-09T12:02:30.484Z,1.83
2023-05-09T12:04:01.492Z,2.29
2023-05-09T12:05:25.265Z,1.99
2023-05-09T12:06:48.448Z,1.39
2023-05-09T12:09:48.817Z,1.24
2023-05-09T12:11:11.460Z,1.44
2023-05-09T12:12:38.313Z,1.55
2023-05-09T12:14:02.020Z,1.33
2023-05-09T12:15:24.725Z,2.03
2023-05-09T12:17:02.611Z,2.84
2023-05-09T12:18:26.668Z,2.24
2023-05-09T12:19:52.324Z,2.49
2023-05-09T12:21:18.521Z,2.41
2023-05-09T12:22:45.142Z,1.88
2023-05-09T12:24:14.246Z,2.59
2023-05-09T12:25:35.991Z,2.01
2023-05-09T12:26:58.984Z,1.66
2023-05-09T12:28:27.612Z,1.24
2023-05-09T12:29:56.388Z,1.95
2023-05-09T12:31:18.863Z,1.73
2023-05-09T12:32:41.485Z,1.32
2023-05-09T12:35:18.590Z,1.86
2023-05-09T12:36:40.567Z,1.45
2023-05-09T12:38:02.749Z,1.51
2023-05-09T12:39:24.717Z,1.45
2023-05-09T12:42:03.997Z,1.84
2023-05-09T12:43:38.577Z,1.58
2023-05-09T12:45:04.581Z,1.43
2023-05-09T12:46:30.733Z,1.75
2023-05-09T12:47:53.134Z,1.31
2023-05-09T12:49:21.069Z,1.66
2023-05-09T12:50:47.424Z,1.07
2023-05-09T12:53:27.307Z,1.78
2023-05-09T12:54:49.928Z,1.46
2023-05-09T13:08:33.150Z,2.04
2023-05-09T13:12:33.446Z,1.02
2023-05-09T13:13:55.602Z,1.31
2023-05-09T13:16:40.446Z,1.59
2023-05-09T13:18:02.218Z,1.16
2023-05-09T13:19:24.047Z,1.55
2023-05-09T13:20:45.318Z,1.48
2023-05-09T13:22:14.020Z,1.73
2023-05-09T13:23:45.237Z,1.79
2023-05-09T13:25:09.163Z,1.12
2023-05-09T13:26:31.993Z,4.58
2023-05-09T13:27:54.129Z,2.81
2023-05-09T13:29:19.290Z,6.11
2023-05-09T13:30:43.177Z,3.48
2023-05-09T13:32:12.945Z,1.91
2023-05-09T13:33:40.135Z,2.02
2023-05-09T13:35:02.820Z,1.59
2023-05-09T13:36:28.250Z,1.33
2023-05-09T13:37:52.177Z,1.83
2023-05-09T13:39:14.083Z,1.52
2023-05-09T13:40:38.133Z,1.46
2023-05-09T13:42:00.258Z,1.06
2023-05-09T13:43:23.131Z,1.29
2023-05-09T13:44:45.172Z,1.11
2023-05-09T13:46:07.862Z,1.22
2023-05-09T13:48:51.690Z,1.53
2023-05-09T13:50:14.792Z,2.05
2023-05-09T13:51:37.446Z,1.68
2023-05-09T13:52:58.541Z,1.23
2023-05-09T13:54:21.386Z,0.93
2023-05-09T13:55:44.211Z,1.22
2023-05-09T13:58:32.236Z,1.03
2023-05-09T13:59:54.943Z,1.16
2023-05-09T14:02:38.513Z,1.98
2023-05-09T14:04:01.442Z,2.33
2023-05-09T14:06:47.357Z,1.44
2023-05-09T14:09:33.501Z,1.91
2023-05-09T14:10:55.693Z,2.66
2023-05-09T14:13:40.895Z,0.91
2023-05-09T14:15:02.552Z,1.04
2023-05-09T14:16:28.036Z,1.01
2023-05-09T14:17:50.801Z,0.86
2023-05-09T14:19:15.486Z,0.93
2023-05-09T14:20:38.646Z,1.26
2023-05-09T14:23:23.559Z,1.38
2023-05-09T14:24:45.399Z,1.16
2023-05-09T14:26:08.240Z,1.40
2023-05-09T14:27:30.906Z,1.33
2023-05-09T14:28:53.972Z,1.10
2023-05-09T14:30:21.941Z,0.82
2023-05-09T14:31:43.267Z,1.20
2023-05-09T14:33:05.125Z,2.93
2023-05-09T14:34:27.799Z,1.32
2023-05-09T14:37:11.195Z,1.81
2023-05-09T14:38:33.422Z,1.23
2023-05-09T14:39:55.376Z,1.98
2023-05-09T14:41:18.606Z,1.60
2023-05-09T14:42:45.004Z,1.49
2023-05-09T14:44:09.310Z,1.34
2023-05-09T14:45:41.965Z,1.33
2023-05-09T14:47:05.373Z,1.76
2023-05-09T14:48:32.087Z,1.92
2023-05-09T14:49:53.924Z,2.00
2023-05-09T14:51:15.258Z,1.84
2023-05-09T14:52:37.472Z,1.84
2023-05-09T14:54:02.509Z,1.82
2023-05-09T14:55:25.281Z,1.59
2023-05-09T14:56:48.141Z,1.47
2023-05-09T15:00:12.498Z,2.34
2023-05-09T15:01:25.711Z,1.74
2023-05-09T15:02:51.010Z,1.48
2023-05-09T15:04:13.727Z,1.69
2023-05-09T15:05:38.382Z,1.56
2023-05-09T15:07:00.430Z,1.37
2023-05-09T15:08:25.251Z,1.11
2023-05-09T15:09:47.339Z,3.46
2023-05-09T15:11:13.007Z,1.02
2023-05-09T15:12:35.492Z,2.05
2023-05-09T15:13:56.830Z,2.25
2023-05-09T15:15:20.182Z,1.13
2023-05-09T15:16:44.712Z,1.14
2023-05-09T15:18:08.472Z,1.31
2023-05-09T15:19:31.068Z,1.08
2023-05-09T15:20:53.903Z,1.08
2023-05-09T15:22:16.617Z,1.09
2023-05-09T15:25:01.485Z,2.44
2023-05-09T15:26:24.902Z,2.12
2023-05-09T15:27:46.262Z,1.73
2023-05-09T15:29:07.476Z,1.31
2023-05-09T15:30:37.456Z,1.41
2023-05-09T15:32:01.358Z,1.62
2023-05-09T15:33:27.229Z,1.79
2023-05-09T15:34:49.806Z,1.53
2023-05-09T15:36:12.264Z,1.46
2023-05-09T15:37:35.669Z,1.57
2023-05-09T15:38:59.061Z,1.32
2023-05-09T15:40:20.663Z,1.22
2023-05-09T15:41:41.844Z,1.62
2023-05-09T15:43:05.909Z,1.51
2023-05-09T15:44:31.424Z,1.36
2023-05-09T15:45:54.709Z,1.22
2023-05-09T15:48:41.301Z,1.60
2023-05-09T15:50:03.938Z,1.44
2023-05-09T15:51:26.519Z,1.39
2023-05-09T15:52:49.050Z,1.66
2023-05-09T15:54:11.444Z,1.83
2023-05-09T15:55:33.663Z,2.76
2023-05-09T15:56:55.631Z,2.36
2023-05-09T15:59:40.272Z,1.37
2023-05-09T16:02:26.484Z,1.42
2023-05-09T16:03:47.919Z,1.11
2023-05-09T16:05:10.134Z,1.20
2023-05-09T16:06:32.247Z,0.91
2023-05-09T16:07:54.319Z,2.97
2023-05-09T16:09:17.328Z,2.16
2023-05-09T16:10:41.797Z,2.31
2023-05-09T16:12:04.429Z,1.06
2023-05-09T16:13:27.389Z,1.69
2023-05-09T16:14:49.591Z,1.27
2023-05-09T16:16:12.539Z,1.36
2023-05-09T16:17:34.757Z,1.50
2023-05-09T16:18:56.231Z,1.94
2023-05-09T16:20:18.611Z,1.66
2023-05-09T16:21:40.958Z,1.22
2023-05-09T16:23:04.752Z,2.77
2023-05-09T16:24:27.208Z,4.35
2023-05-09T16:25:49.806Z,3.20
2023-05-09T16:27:12.653Z,3.98
2023-05-09T16:28:34.735Z,2.06
2023-05-09T16:29:57.644Z,2.77
2023-05-09T16:31:24.005Z,1.71
2023-05-09T16:32:46.838Z,1.74
2023-05-09T16:34:08.674Z,2.45
2023-05-09T16:35:34.648Z,1.37
2023-05-09T16:36:55.891Z,1.82
2023-05-09T16:38:17.164Z,1.55
2023-05-09T16:39:38.712Z,1.29
2023-05-09T16:41:00.841Z,2.00
2023-05-09T16:42:24.149Z,1.48
2023-05-09T16:43:46.418Z,1.84
2023-05-09T16:45:12.622Z,1.56
2023-05-09T16:46:34.725Z,1.34
2023-05-09T16:47:56.231Z,1.12
2023-05-09T16:49:17.768Z,1.26
2023-05-09T16:50:40.588Z,1.21
2023-05-09T16:52:02.522Z,1.07
2023-05-09T16:53:27.068Z,3.04
2023-05-09T16:54:48.723Z,1.51
2023-05-09T16:56:11.712Z,1.19
2023-05-09T16:57:34.451Z,1.36
2023-05-09T16:58:58.058Z,1.23
2023-05-09T17:00:22.070Z,1.63
2023-05-09T17:01:43.593Z,2.01
2023-05-09T17:03:05.433Z,1.93
2023-05-09T17:04:26.858Z,1.53
2023-05-09T17:05:49.305Z,1.28
2023-05-09T17:07:12.755Z,1.59
2023-05-09T17:08:34.802Z,1.28
2023-05-09T17:09:56.986Z,1.65
2023-05-09T17:11:18.159Z,1.38
2023-05-09T17:12:40.628Z,1.97
2023-05-09T17:14:05.563Z,1.71
2023-05-09T17:15:27.298Z,1.81
2023-05-09T17:16:49.745Z,2.11
2023-05-09T17:18:17.070Z,1.78
2023-05-09T17:20:52.673Z,1.81
2023-05-09T17:22:15.350Z,2.67
2023-05-09T17:23:36.852Z,3.37
2023-05-09T17:24:58.901Z,2.02
2023-05-09T17:26:21.023Z,2.29
2023-05-09T17:27:44.079Z,2.12
2023-05-09T17:29:06.407Z,2.56
2023-05-09T17:30:29.097Z,2.33
2023-05-09T17:31:50.868Z,2.02
2023-05-09T17:33:15.850Z,2.31
2023-05-09T17:34:39.519Z,2.56
2023-05-09T17:36:00.700Z,2.17
2023-05-09T17:37:24.679Z,2.13
2023-05-09T17:38:47.178Z,1.98
2023-05-09T17:40:09.546Z,1.71
2023-05-09T17:41:31.928Z,1.84
2023-05-09T17:42:55.724Z,1.77
2023-05-09T17:44:20.531Z,1.54
2023-05-09T17:45:43.438Z,1.93
2023-05-09T17:47:05.554Z,1.49
2023-05-09T17:48:27.537Z,1.55
2023-05-09T17:49:50.054Z,1.39
2023-05-09T17:51:12.976Z,1.49
2023-05-09T17:52:34.867Z,1.62
2023-05-09T17:53:57.472Z,1.53
2023-05-09T17:56:44.727Z,1.87
2023-05-09T17:58:06.993Z,2.28
2023-05-09T17:59:29.830Z,2.85
2023-05-09T18:00:54.663Z,2.31
2023-05-09T18:02:17.244Z,2.50
2023-05-09T18:03:40.940Z,2.06
2023-05-09T18:05:02.933Z,1.97
2023-05-09T18:06:24.626Z,2.22
2023-05-09T18:07:46.940Z,1.74
2023-05-09T18:09:09.471Z,1.81
2023-05-09T18:11:54.017Z,2.87
2023-05-09T18:13:15.881Z,2.13
2023-05-09T18:14:38.968Z,1.76
2023-05-09T18:17:23.096Z,1.82
2023-05-09T18:18:45.868Z,2.01
2023-05-09T18:20:09.713Z,2.42
2023-05-09T18:21:33.215Z,2.21
2023-05-09T18:22:56.043Z,1.94
2023-05-09T18:24:25.237Z,1.38
2023-05-09T18:25:54.861Z,1.92
2023-05-09T18:27:16.942Z,1.86
2023-05-09T18:28:38.778Z,1.43
2023-05-09T18:30:04.629Z,2.54
2023-05-09T18:31:27.006Z,3.03
2023-05-09T18:32:50.765Z,2.78
2023-05-09T18:34:12.693Z,2.36
2023-05-09T18:35:37.270Z,1.74
2023-05-09T18:36:59.612Z,1.88
2023-05-09T18:38:24.224Z,1.74
2023-05-09T18:39:51.676Z,2.03
2023-05-09T18:41:17.068Z,2.07
2023-05-09T18:42:42.768Z,1.46
2023-05-09T18:44:04.643Z,1.46
2023-05-09T18:45:26.710Z,2.16
2023-05-09T18:46:49.794Z,1.85
2023-05-09T18:48:17.151Z,2.09
2023-05-09T18:49:39.262Z,1.71
2023-05-09T18:51:02.821Z,1.73
2023-05-09T18:52:24.836Z,1.48
2023-05-09T18:55:26.833Z,1.83
2023-05-09T18:56:48.552Z,1.47
2023-05-09T18:58:12.520Z,1.22
2023-05-09T18:59:34.487Z,1.86
2023-05-09T19:00:59.666Z,1.59
2023-05-09T19:02:21.924Z,1.48
2023-05-09T19:03:45.796Z,1.56
2023-05-09T19:05:08.602Z,1.60
2023-05-09T19:06:30.528Z,1.52
2023-05-09T19:07:54.085Z,2.13
2023-05-09T19:09:16.079Z,1.49
2023-05-09T19:10:40.128Z,1.91
2023-05-09T19:12:02.795Z,1.64
2023-05-09T19:13:25.231Z,1.44
2023-05-09T19:14:53.568Z,1.42
2023-05-09T19:16:15.627Z,1.98
2023-05-09T19:17:38.670Z,1.74
2023-05-09T19:19:02.376Z,1.98
2023-05-09T19:20:26.563Z,1.89
2023-05-09T19:21:50.336Z,1.65
2023-05-09T19:23:12.588Z,1.65
2023-05-09T19:25:58.601Z,1.61
2023-05-09T19:27:20.585Z,1.62
2023-05-09T19:28:43.017Z,2.02
2023-05-09T19:30:10.480Z,1.87
2023-05-09T19:31:34.423Z,2.08
2023-05-09T19:32:56.333Z,2.11
2023-05-09T19:34:18.434Z,1.93
2023-05-09T19:35:48.954Z,1.59
2023-05-09T19:37:10.841Z,1.83
2023-05-09T19:38:32.106Z,1.62
2023-05-09T19:39:54.745Z,1.62
2023-05-09T19:41:16.774Z,1.64
2023-05-09T19:42:40.974Z,1.94
2023-05-09T19:44:03.509Z,1.76
2023-05-09T19:45:26.214Z,1.58
2023-05-09T19:48:11.712Z,1.78
2023-05-09T19:49:39.821Z,1.92
2023-05-09T19:51:04.014Z,1.75
2023-05-09T19:52:25.818Z,1.68
2023-05-09T19:53:53.298Z,1.79
2023-05-09T19:55:15.927Z,1.90
2023-05-09T19:56:40.521Z,2.84
2023-05-09T19:58:02.330Z,2.00
2023-05-09T19:59:25.352Z,2.01